DataTemp.
Ø
Temp.
Max
Temp.
Min
UmiditàPressionePioggiaVento
Ø
Vento
dir. Ø
Vento
Max
Indice UV
Max
06.05.2021 00:0012.6°C12.7°C12.6°C52.0%1008.0hPa0.0mm3.4km/hSSW5.0km/h0uvi
06.05.2021 00:0512.5°C12.5°C12.5°C52.0%1008.0hPa0.0mm3.8km/hSSW5.4km/h0uvi
06.05.2021 00:1012.5°C12.5°C12.4°C52.0%1008.0hPa0.0mm2.7km/hSSW4.7km/h0uvi
06.05.2021 00:1512.4°C12.4°C12.4°C53.3%1008.0hPa0.0mm3.5km/hSSW5.0km/h0uvi
06.05.2021 00:2012.3°C12.4°C12.3°C54.0%1007.6hPa0.0mm3.2km/hSSW4.3km/h0uvi
06.05.2021 00:2512.2°C12.3°C12.1°C54.0%1007.0hPa0.0mm3.8km/hSSW5.0km/h0uvi
06.05.2021 00:3012.1°C12.1°C12.0°C54.0%1007.0hPa0.0mm2.9km/hSSW4.7km/h0uvi
06.05.2021 00:3511.9°C12.0°C11.9°C54.6%1007.0hPa0.0mm2.4km/hSSW4.0km/h0uvi
06.05.2021 00:4011.8°C11.8°C11.8°C55.0%1007.0hPa0.0mm0.1km/hWSW3.2km/h0uvi
06.05.2021 00:4511.8°C11.8°C11.8°C55.0%1007.0hPa0.0mm1.8km/hSSE4.3km/h0uvi
06.05.2021 00:5011.6°C11.7°C11.6°C55.2%1007.4hPa0.0mm3.6km/hSSE5.8km/h0uvi
06.05.2021 00:5511.5°C11.6°C11.5°C56.0%1008.0hPa0.0mm2.7km/hSSW5.4km/h0uvi
06.05.2021 01:0011.4°C11.4°C11.4°C55.0%1008.0hPa0.0mm0.0km/hWSW0.0km/h0uvi
06.05.2021 01:0511.3°C11.4°C11.3°C56.0%1008.0hPa0.0mm1.8km/hESE4.7km/h0uvi
06.05.2021 01:1011.1°C11.3°C11.0°C56.8%1008.0hPa0.0mm3.9km/hESE5.4km/h0uvi
06.05.2021 01:1510.8°C10.9°C10.7°C57.0%1008.0hPa0.0mm2.3km/hNE4.0km/h0uvi
06.05.2021 01:2010.5°C10.6°C10.4°C58.3%1008.4hPa0.0mm2.7km/hSSE4.7km/h0uvi
06.05.2021 01:2510.3°C10.3°C10.2°C59.0%1009.0hPa0.0mm2.2km/hSSW4.3km/h0uvi
06.05.2021 01:3010.2°C10.2°C10.2°C59.0%1009.0hPa0.0mm2.2km/hSSW4.7km/h0uvi
06.05.2021 01:3510.2°C10.2°C10.1°C59.0%1009.4hPa0.0mm2.9km/hSSW5.0km/h0uvi
06.05.2021 01:4010.1°C10.1°C10.1°C59.6%1010.0hPa0.0mm1.8km/hSSW4.3km/h0uvi
06.05.2021 01:4510.0°C10.0°C10.0°C59.7%1010.0hPa0.0mm0.3km/hNE2.2km/h0uvi
06.05.2021 01:5010.0°C10.0°C10.0°C59.7%1009.6hPa0.0mm1.1km/hSE3.2km/h0uvi
06.05.2021 01:559.8°C9.9°C9.8°C60.0%1009.0hPa0.0mm1.0km/hSSW3.2km/h0uvi
06.05.2021 02:009.8°C9.8°C9.7°C60.3%1009.0hPa0.0mm0.6km/hSSW2.5km/h0uvi
06.05.2021 02:059.7°C9.7°C9.6°C61.0%1009.4hPa0.0mm2.0km/hSSE3.6km/h0uvi
06.05.2021 02:109.6°C9.6°C9.5°C61.0%1010.0hPa0.0mm2.3km/hSSE4.0km/h0uvi
06.05.2021 02:159.4°C9.5°C9.4°C61.4%1010.0hPa0.0mm2.3km/hSSE5.8km/h0uvi
06.05.2021 02:209.4°C9.4°C9.4°C62.0%1010.0hPa0.0mm4.1km/hSSW6.1km/h0uvi
06.05.2021 02:259.3°C9.3°C9.3°C62.0%1010.0hPa0.0mm1.6km/hSSW3.6km/h0uvi
06.05.2021 02:309.2°C9.2°C9.2°C62.0%1010.0hPa0.0mm1.5km/hSSW3.2km/h0uvi
06.05.2021 02:359.2°C9.2°C9.2°C62.0%1010.0hPa0.0mm1.4km/hSSW3.6km/h0uvi
06.05.2021 02:409.1°C9.2°C9.1°C61.5%1010.0hPa0.0mm2.3km/hSSW5.0km/h0uvi
06.05.2021 02:459.1°C9.1°C9.0°C61.8%1010.0hPa0.0mm3.0km/hSSW5.8km/h0uvi
06.05.2021 02:509.0°C9.0°C9.0°C61.0%1010.0hPa0.0mm3.9km/hSSW6.5km/h0uvi
06.05.2021 02:559.0°C9.0°C8.9°C61.0%1010.0hPa0.0mm2.4km/hSSE4.0km/h0uvi
06.05.2021 03:008.9°C8.9°C8.8°C61.0%1010.0hPa0.0mm0.8km/hSSW3.2km/h0uvi
06.05.2021 03:058.7°C8.7°C8.7°C62.0%1010.0hPa0.0mm3.2km/hSSW5.0km/h0uvi
06.05.2021 03:108.8°C8.8°C8.7°C61.2%1010.0hPa0.0mm1.6km/hSSW3.2km/h0uvi
06.05.2021 03:158.8°C8.8°C8.7°C61.0%1010.0hPa0.0mm2.1km/hSE4.7km/h0uvi
06.05.2021 03:208.7°C8.7°C8.7°C61.0%1009.6hPa0.0mm1.0km/hESE3.2km/h0uvi
06.05.2021 03:258.6°C8.6°C8.5°C61.0%1009.0hPa0.0mm0.9km/hSSE3.2km/h0uvi
06.05.2021 03:308.4°C8.5°C8.4°C61.0%1009.0hPa0.0mm2.2km/hSSE4.0km/h0uvi
06.05.2021 03:358.3°C8.4°C8.3°C61.0%1009.0hPa0.0mm3.1km/hSSE4.3km/h0uvi
06.05.2021 03:408.2°C8.2°C8.2°C61.0%1009.0hPa0.0mm3.0km/hSSW5.0km/h0uvi
06.05.2021 03:458.2°C8.2°C8.2°C61.0%1009.0hPa0.0mm2.6km/hSSE4.7km/h0uvi
06.05.2021 03:508.2°C8.2°C8.2°C61.0%1009.5hPa0.0mm1.5km/hSSE5.0km/h0uvi
06.05.2021 03:558.2°C8.2°C8.1°C61.0%1010.0hPa0.0mm2.0km/hSSE2.5km/h0uvi
06.05.2021 04:008.1°C8.1°C8.0°C61.0%1010.0hPa0.0mm0.8km/hSSE3.2km/h0uvi
06.05.2021 04:057.9°C8.0°C7.9°C62.8%1010.0hPa0.0mm3.1km/hSSE4.7km/h0uvi
06.05.2021 04:107.9°C7.9°C7.9°C64.0%1010.0hPa0.0mm3.7km/hSSW7.6km/h0uvi
06.05.2021 04:157.9°C8.0°C7.9°C62.8%1010.0hPa0.0mm4.9km/hSSW9.7km/h0uvi
06.05.2021 04:208.1°C8.1°C8.0°C61.5%1010.0hPa0.0mm3.5km/hWSW6.5km/h0uvi
06.05.2021 04:258.1°C8.1°C8.1°C63.0%1010.0hPa0.0mm2.7km/hSSW4.0km/h0uvi
06.05.2021 04:308.0°C8.1°C8.0°C64.0%1010.0hPa0.0mm2.9km/hSSW4.0km/h0uvi
06.05.2021 04:358.0°C8.0°C7.9°C64.2%1010.0hPa0.0mm1.5km/hSSW3.6km/h0uvi
06.05.2021 04:407.8°C7.9°C7.8°C65.0%1010.0hPa0.0mm0.7km/hWSW1.8km/h0uvi
06.05.2021 04:457.8°C7.8°C7.8°C65.0%1010.0hPa0.0mm1.3km/hWSW3.6km/h0uvi
06.05.2021 04:507.7°C7.7°C7.7°C65.0%1010.0hPa0.0mm0.2km/hWNW0.0km/h0uvi
06.05.2021 04:557.6°C7.7°C7.6°C65.6%1010.0hPa0.0mm0.7km/hNE3.2km/h0uvi
06.05.2021 05:007.5°C7.6°C7.5°C66.0%1010.0hPa0.0mm1.0km/hESE3.2km/h0uvi
06.05.2021 05:057.5°C7.5°C7.4°C66.0%1010.0hPa0.0mm1.4km/hSSE3.2km/h0uvi
06.05.2021 05:107.3°C7.4°C7.3°C64.8%1010.0hPa0.0mm1.4km/hESE3.2km/h0uvi
06.05.2021 05:157.3°C7.3°C7.3°C64.0%1010.0hPa0.0mm1.8km/hSSW5.4km/h0uvi
06.05.2021 05:207.3°C7.3°C7.2°C64.8%1010.0hPa0.0mm2.2km/hSSW3.6km/h0uvi
06.05.2021 05:257.2°C7.2°C7.2°C65.0%1010.0hPa0.0mm1.3km/hWSW3.6km/h0uvi
06.05.2021 05:307.2°C7.2°C7.2°C65.4%1010.0hPa0.0mm0.1km/hWSW0.0km/h0uvi
06.05.2021 05:357.2°C7.2°C7.2°C66.0%1010.6hPa0.0mm0.4km/hSSW2.2km/h0uvi
06.05.2021 05:407.2°C7.2°C7.2°C66.2%1011.0hPa0.0mm0.0km/hWNW0.0km/h0uvi
06.05.2021 05:457.1°C7.1°C7.1°C66.3%1011.0hPa0.0mm0.0km/hNW3.2km/h0uvi
06.05.2021 05:507.0°C7.1°C7.0°C66.0%1011.0hPa0.0mm0.2km/hSE3.2km/h0uvi
06.05.2021 05:557.0°C7.0°C7.0°C66.0%1011.0hPa0.0mm0.4km/hESE4.0km/h0uvi
06.05.2021 06:007.0°C7.0°C7.0°C65.0%1011.0hPa0.0mm2.3km/hSSE3.6km/h0uvi
06.05.2021 06:056.9°C6.9°C6.9°C65.8%1011.0hPa0.0mm2.2km/hSSW3.6km/h0uvi
06.05.2021 06:106.9°C6.9°C6.9°C66.8%1011.0hPa0.0mm0.6km/hWSW3.2km/h0uvi
06.05.2021 06:156.9°C6.9°C6.9°C66.4%1011.0hPa0.0mm1.9km/hSSW4.0km/h0uvi
06.05.2021 06:206.9°C6.9°C6.9°C65.2%1011.0hPa0.0mm0.8km/hWSW2.2km/h0uvi
06.05.2021 06:256.9°C6.9°C6.9°C66.0%1011.0hPa0.0mm0.6km/hWSW3.2km/h0uvi
06.05.2021 06:306.9°C6.9°C6.9°C67.5%1011.0hPa0.0mm1.0km/hSSW4.0km/h0uvi
06.05.2021 06:356.9°C6.9°C6.9°C69.0%1011.0hPa0.0mm2.2km/hSSW3.6km/h0uvi
06.05.2021 06:406.9°C6.9°C6.9°C69.2%1011.0hPa0.0mm3.5km/hSSW7.6km/h0uvi
06.05.2021 06:457.0°C7.1°C7.0°C66.0%1011.0hPa0.0mm2.8km/hSSW5.0km/h0uvi
06.05.2021 06:507.2°C7.2°C7.1°C64.2%1011.0hPa0.0mm0.5km/hSSE4.7km/h0uvi
06.05.2021 06:557.2°C7.2°C7.1°C65.0%1011.0hPa0.0mm1.5km/hSE4.0km/h0uvi
06.05.2021 07:007.0°C7.0°C6.9°C66.6%1011.0hPa0.0mm1.6km/hSSE4.3km/h0uvi
06.05.2021 07:056.9°C6.9°C6.8°C67.0%1011.5hPa0.0mm3.3km/hSSE4.7km/h0uvi
06.05.2021 07:106.9°C6.9°C6.8°C67.8%1012.0hPa0.0mm2.3km/hESE5.0km/h0uvi
06.05.2021 07:157.0°C7.0°C6.9°C67.2%1012.0hPa0.0mm0.0km/hNE2.2km/h0uvi
06.05.2021 07:207.0°C7.1°C7.0°C67.7%1012.0hPa0.0mm0.0km/hSE0.0km/h0uvi
06.05.2021 07:257.1°C7.2°C7.1°C67.2%1012.0hPa0.0mm0.7km/hSE2.2km/h0uvi
06.05.2021 07:307.2°C7.3°C7.2°C68.0%1012.0hPa0.0mm0.2km/hNE2.2km/h0uvi
06.05.2021 07:357.5°C7.5°C7.4°C68.0%1012.0hPa0.0mm0.6km/hNE1.8km/h0uvi
06.05.2021 07:407.5°C7.6°C7.5°C68.0%1012.0hPa0.0mm1.7km/hSSE4.3km/h0uvi
06.05.2021 07:457.7°C7.7°C7.6°C68.0%1012.0hPa0.0mm2.1km/hSSE3.2km/h0uvi
06.05.2021 07:507.8°C7.8°C7.7°C68.0%1012.0hPa0.0mm0.5km/hWSW1.8km/h0uvi
06.05.2021 07:558.0°C8.0°C7.9°C68.0%1012.0hPa0.0mm0.6km/hNE4.3km/h0uvi
06.05.2021 08:008.3°C8.4°C8.2°C67.2%1012.0hPa0.0mm3.4km/hNE4.3km/h0uvi
06.05.2021 08:058.5°C8.6°C8.5°C66.0%1012.0hPa0.0mm1.7km/hNE3.2km/h0uvi
06.05.2021 08:108.7°C8.8°C8.7°C64.7%1012.0hPa0.0mm0.2km/hNE2.5km/h0uvi
06.05.2021 08:158.9°C9.0°C8.9°C64.0%1012.0hPa0.0mm2.5km/hNE4.0km/h0uvi
06.05.2021 08:209.1°C9.1°C9.0°C63.5%1012.0hPa0.0mm2.5km/hNE4.3km/h0uvi
06.05.2021 08:259.3°C9.3°C9.2°C64.0%1012.0hPa0.0mm2.6km/hENE6.1km/h0uvi
06.05.2021 08:309.3°C9.4°C9.3°C64.5%1012.0hPa0.0mm0.3km/hNE0.0km/h0uvi
06.05.2021 08:359.6°C9.6°C9.5°C65.5%1012.5hPa0.0mm2.0km/hNE5.0km/h0uvi
06.05.2021 08:409.7°C9.8°C9.7°C65.2%1013.0hPa0.0mm1.8km/hENE4.3km/h0uvi
06.05.2021 08:459.8°C9.8°C9.8°C65.0%1013.0hPa0.0mm2.4km/hESE6.1km/h0uvi
06.05.2021 08:509.9°C10.0°C9.9°C64.2%1012.5hPa0.0mm2.9km/hNE5.0km/h0uvi
06.05.2021 08:5510.0°C10.1°C10.0°C64.0%1012.0hPa0.0mm2.4km/hNE5.4km/h0uvi
06.05.2021 09:0010.2°C10.2°C10.1°C62.6%1012.0hPa0.0mm3.2km/hNE6.1km/h0uvi
06.05.2021 09:0510.3°C10.4°C10.2°C63.0%1012.0hPa0.0mm1.9km/hENE5.4km/h0uvi
06.05.2021 09:1010.6°C10.6°C10.5°C63.0%1012.0hPa0.0mm1.5km/hNE4.7km/h0uvi
06.05.2021 09:1510.8°C10.8°C10.7°C63.0%1012.0hPa0.0mm0.5km/hNE4.7km/h0uvi
06.05.2021 09:2010.9°C11.0°C10.8°C62.0%1012.0hPa0.0mm2.9km/hNE5.4km/h0uvi
06.05.2021 09:2511.1°C11.1°C11.0°C61.0%1012.0hPa0.0mm3.0km/hENE6.5km/h1uvi
06.05.2021 09:3011.2°C11.3°C11.1°C60.2%1012.0hPa0.0mm2.8km/hENE7.6km/h2uvi
06.05.2021 09:3511.4°C11.5°C11.3°C59.0%1012.0hPa0.0mm2.9km/hNE6.1km/h1uvi
06.05.2021 09:4011.6°C11.6°C11.6°C58.0%1012.0hPa0.0mm4.3km/hNE9.4km/h2uvi
06.05.2021 09:4511.7°C11.7°C11.6°C57.6%1012.0hPa0.0mm3.9km/hNE6.5km/h1uvi
06.05.2021 09:5011.8°C11.9°C11.8°C58.2%1012.0hPa0.0mm3.0km/hNE6.1km/h1uvi
06.05.2021 09:5512.0°C12.0°C11.9°C57.4%1012.0hPa0.0mm2.8km/hNE6.5km/h2uvi
06.05.2021 10:0012.0°C12.1°C12.0°C57.0%1012.0hPa0.0mm3.5km/hNE5.8km/h2uvi
06.05.2021 10:0512.2°C12.3°C12.1°C57.2%1012.0hPa0.0mm4.2km/hNE6.1km/h2uvi
06.05.2021 10:1012.5°C12.6°C12.4°C57.3%1012.0hPa0.0mm3.6km/hNE7.6km/h2uvi
06.05.2021 10:1512.7°C12.8°C12.7°C57.0%1012.0hPa0.0mm2.4km/hNW6.1km/h2uvi
06.05.2021 10:2013.0°C13.1°C13.0°C55.5%1012.0hPa0.0mm5.1km/hENE7.9km/h2uvi
06.05.2021 10:2513.4°C13.7°C13.2°C56.0%1012.0hPa0.0mm4.3km/hNE7.9km/h2uvi
06.05.2021 10:3013.9°C14.0°C13.7°C55.6%1012.0hPa0.0mm3.8km/hNW6.5km/h3uvi
06.05.2021 10:3514.2°C14.4°C14.0°C56.0%1012.0hPa0.0mm3.7km/hSSE5.8km/h3uvi
06.05.2021 10:4014.3°C14.4°C14.1°C55.0%1012.0hPa0.0mm5.0km/hSSE8.6km/h3uvi
06.05.2021 10:4514.5°C14.7°C14.4°C54.8%1012.0hPa0.0mm4.7km/hNE10.4km/h4uvi
06.05.2021 10:5014.7°C14.9°C14.5°C55.0%1011.5hPa0.0mm6.1km/hENE10.1km/h3uvi
06.05.2021 10:5514.8°C14.8°C14.7°C54.7%1011.0hPa0.0mm5.2km/hNE10.1km/h3uvi
06.05.2021 11:0014.9°C15.0°C14.9°C54.0%1011.0hPa0.0mm6.1km/hNE9.0km/h3uvi
06.05.2021 11:0515.0°C15.1°C14.8°C54.4%1011.0hPa0.0mm3.5km/hNE6.8km/h2uvi
06.05.2021 11:1014.8°C14.9°C14.7°C55.0%1011.0hPa0.0mm5.4km/hNE10.4km/h1uvi
06.05.2021 11:1514.8°C15.0°C14.7°C55.2%1011.0hPa0.0mm3.7km/hNE6.8km/h1uvi
06.05.2021 11:2014.8°C15.0°C14.6°C55.0%1011.0hPa0.0mm3.8km/hNE9.4km/h1uvi
06.05.2021 11:2514.5°C14.5°C14.4°C55.0%1011.0hPa0.0mm4.7km/hNE9.4km/h5uvi
06.05.2021 11:3014.7°C14.8°C14.6°C55.7%1011.0hPa0.0mm3.5km/hNE6.5km/h2uvi
06.05.2021 11:3515.1°C15.3°C15.0°C54.8%1011.0hPa0.0mm4.4km/hNE6.5km/h4uvi
06.05.2021 11:4015.6°C15.7°C15.4°C55.3%1011.0hPa0.0mm4.8km/hNE9.4km/h3uvi
06.05.2021 11:4516.1°C16.4°C15.9°C55.0%1011.0hPa0.0mm6.0km/hNE10.4km/h5uvi
06.05.2021 11:5016.5°C16.8°C16.3°C54.0%1010.5hPa0.0mm5.5km/hNE11.5km/h5uvi
06.05.2021 11:5517.1°C17.2°C17.0°C52.0%1010.0hPa0.0mm6.8km/hNE15.8km/h5uvi
06.05.2021 12:0017.3°C17.7°C17.1°C52.2%1010.0hPa0.0mm7.3km/hNE9.7km/h5uvi
06.05.2021 12:0517.9°C18.1°C17.7°C51.8%1010.0hPa0.0mm6.2km/hNE12.6km/h5uvi
06.05.2021 12:1017.9°C18.1°C17.7°C49.6%1010.0hPa0.0mm6.4km/hNE13.0km/h6uvi
06.05.2021 12:1518.4°C18.7°C18.2°C49.8%1010.0hPa0.0mm4.8km/hENE6.1km/h6uvi
06.05.2021 12:2018.6°C18.8°C18.5°C48.0%1010.0hPa0.0mm6.4km/hESE13.0km/h6uvi
06.05.2021 12:2518.8°C19.0°C18.6°C48.2%1010.0hPa0.0mm5.7km/hNW12.6km/h7uvi
06.05.2021 12:3018.8°C18.8°C18.7°C47.5%1010.0hPa0.0mm5.6km/hNE11.9km/h7uvi
06.05.2021 12:3519.2°C19.5°C19.0°C47.2%1010.0hPa0.0mm5.2km/hENE12.6km/h7uvi
06.05.2021 12:4018.8°C19.0°C18.5°C46.7%1010.0hPa0.0mm8.7km/hNE17.3km/h7uvi
06.05.2021 12:4518.7°C18.8°C18.6°C47.0%1010.0hPa0.0mm6.6km/hNE10.4km/h7uvi
06.05.2021 12:5018.6°C18.8°C18.4°C46.8%1009.4hPa0.0mm8.3km/hNE13.7km/h5uvi
06.05.2021 12:5518.8°C19.0°C18.6°C47.2%1009.0hPa0.0mm5.9km/hNW13.7km/h7uvi
06.05.2021 13:0018.9°C19.0°C18.8°C46.6%1009.0hPa0.0mm5.5km/hNE14.0km/h6uvi
06.05.2021 13:0518.7°C19.0°C18.5°C46.0%1009.0hPa0.0mm7.5km/hNE12.2km/h8uvi
06.05.2021 13:1019.0°C19.1°C18.9°C46.5%1009.0hPa0.0mm7.8km/hNE12.2km/h7uvi
06.05.2021 13:1519.0°C19.2°C18.7°C46.0%1009.0hPa0.0mm7.5km/hNE19.8km/h7uvi
06.05.2021 13:2018.6°C18.6°C18.5°C45.2%1009.5hPa0.0mm6.4km/hS9.4km/h1uvi
06.05.2021 13:2518.4°C18.6°C18.4°C45.7%1010.0hPa0.0mm5.2km/hNE13.0km/h1uvi
06.05.2021 13:3018.2°C18.2°C18.2°C45.7%1010.0hPa0.0mm6.9km/hNE10.4km/h3uvi
06.05.2021 13:3518.3°C18.4°C18.3°C46.0%1010.0hPa0.0mm6.5km/hNE10.4km/h2uvi
06.05.2021 13:4018.4°C18.4°C18.3°C46.2%1010.0hPa0.0mm5.8km/hNE11.9km/h2uvi
06.05.2021 13:4518.3°C18.3°C18.3°C46.0%1010.0hPa0.0mm7.6km/hENE11.9km/h2uvi
06.05.2021 13:5018.3°C18.4°C18.2°C46.2%1010.0hPa0.0mm6.4km/hENE10.1km/h2uvi
06.05.2021 13:5518.2°C18.3°C18.1°C45.5%1010.0hPa0.0mm7.2km/hNE13.7km/h1uvi
06.05.2021 14:0018.1°C18.2°C18.1°C45.8%1010.0hPa0.0mm7.0km/hNE14.0km/h3uvi
06.05.2021 14:0518.1°C18.1°C18.1°C45.0%1010.0hPa0.0mm6.8km/hNE14.4km/h1uvi
06.05.2021 14:1018.0°C18.1°C17.9°C45.8%1010.0hPa0.0mm7.1km/hNE14.0km/h1uvi
06.05.2021 14:1517.8°C17.9°C17.8°C46.2%1010.0hPa0.0mm7.1km/hNE11.9km/h1uvi
06.05.2021 14:2017.8°C17.9°C17.8°C46.8%1010.0hPa0.0mm4.7km/hNE6.1km/h0uvi
06.05.2021 14:2517.9°C17.9°C17.9°C47.0%1010.0hPa0.0mm3.4km/hNE5.8km/h0uvi
06.05.2021 14:3017.9°C17.9°C17.8°C47.0%1010.0hPa0.0mm4.3km/hNE9.0km/h0uvi
06.05.2021 14:3517.7°C17.8°C17.6°C46.8%1009.7hPa0.0mm5.7km/hNE11.5km/h0uvi
06.05.2021 14:4017.6°C17.6°C17.6°C47.0%1009.0hPa0.0mm5.5km/hNE9.4km/h0uvi
06.05.2021 14:4517.5°C17.5°C17.5°C47.0%1009.0hPa0.0mm4.0km/hNE8.6km/h0uvi
06.05.2021 14:5017.4°C17.4°C17.4°C47.0%1009.0hPa0.0mm3.5km/hNE6.8km/h0uvi
06.05.2021 14:5517.3°C17.4°C17.3°C47.0%1009.0hPa0.0mm4.6km/hNE7.9km/h0uvi
06.05.2021 15:0017.3°C17.4°C17.3°C47.0%1009.0hPa0.0mm6.3km/hNE7.2km/h0uvi
06.05.2021 15:0517.4°C17.4°C17.3°C47.0%1009.0hPa0.0mm3.7km/hNE5.8km/h0uvi
06.05.2021 15:1017.3°C17.3°C17.3°C47.0%1009.0hPa0.0mm5.5km/hNE9.0km/h0uvi
06.05.2021 15:1517.3°C17.3°C17.3°C47.0%1009.0hPa0.0mm6.3km/hNE8.6km/h0uvi
06.05.2021 15:2017.3°C17.4°C17.3°C47.3%1009.0hPa0.0mm6.2km/hNE8.6km/h0uvi
06.05.2021 15:2517.4°C17.4°C17.4°C47.7%1009.0hPa0.0mm7.4km/hNE10.4km/h0uvi
06.05.2021 15:3017.4°C17.4°C17.4°C47.2%1009.0hPa0.0mm7.7km/hNE9.7km/h0uvi
06.05.2021 15:3517.4°C17.4°C17.4°C47.0%1009.0hPa0.0mm6.2km/hNE9.4km/h0uvi
06.05.2021 15:4017.4°C17.4°C17.4°C47.0%1009.0hPa0.0mm5.6km/hNW10.1km/h0uvi
06.05.2021 15:4517.4°C17.5°C17.4°C47.7%1009.0hPa0.0mm6.4km/hNE11.9km/h1uvi
06.05.2021 15:5017.4°C17.5°C17.4°C48.3%1008.6hPa0.0mm7.0km/hNE9.0km/h1uvi
06.05.2021 15:5517.4°C17.5°C17.4°C48.0%1008.0hPa0.0mm5.4km/hNE10.1km/h1uvi
06.05.2021 16:0017.4°C17.5°C17.4°C48.0%1008.0hPa0.0mm6.7km/hENE10.4km/h1uvi
06.05.2021 16:0517.4°C17.4°C17.4°C47.5%1007.6hPa0.0mm5.4km/hNE8.6km/h0uvi
06.05.2021 16:1017.4°C17.5°C17.4°C47.8%1007.0hPa0.0mm4.9km/hNE9.7km/h0uvi
06.05.2021 16:1517.4°C17.4°C17.4°C48.4%1007.0hPa0.0mm5.0km/hNE8.6km/h0uvi
06.05.2021 16:2017.5°C17.5°C17.4°C48.5%1007.5hPa0.0mm2.1km/hNE6.1km/h1uvi
06.05.2021 16:2517.6°C17.6°C17.6°C48.2%1008.0hPa0.0mm2.8km/hNE5.0km/h1uvi
06.05.2021 16:3017.7°C17.8°C17.6°C47.8%1008.0hPa0.0mm1.9km/hSSW4.3km/h1uvi
06.05.2021 16:3517.9°C17.9°C17.8°C48.3%1008.0hPa0.0mm1.3km/hSSW5.0km/h0uvi
06.05.2021 16:4018.0°C18.1°C17.9°C47.2%1008.0hPa0.0mm0.2km/hNE1.4km/h0uvi
06.05.2021 16:4518.2°C18.2°C18.2°C46.3%1008.0hPa0.0mm0.5km/hSSE3.2km/h0uvi
06.05.2021 16:5018.2°C18.3°C18.2°C45.5%1008.0hPa0.0mm1.1km/hNE3.6km/h0uvi
06.05.2021 16:5518.2°C18.2°C18.2°C46.8%1008.0hPa0.0mm3.6km/hNE7.2km/h0uvi
06.05.2021 17:0018.1°C18.1°C18.1°C46.2%1008.0hPa0.0mm3.0km/hNE4.7km/h0uvi
06.05.2021 17:0518.1°C18.1°C18.0°C44.7%1008.0hPa0.0mm2.5km/hNE4.7km/h0uvi
06.05.2021 17:1018.0°C18.1°C18.0°C45.5%1008.0hPa0.0mm1.8km/hNE4.0km/h0uvi
06.05.2021 17:1518.2°C18.2°C18.1°C47.0%1008.0hPa0.0mm1.0km/hNE6.5km/h0uvi
06.05.2021 17:2018.2°C18.2°C18.2°C46.5%1008.0hPa0.0mm2.8km/hNE4.3km/h0uvi
06.05.2021 17:2518.2°C18.2°C18.1°C47.0%1008.0hPa0.0mm3.1km/hNE7.9km/h0uvi
06.05.2021 17:3018.1°C18.1°C18.0°C47.6%1008.0hPa0.0mm4.0km/hENE7.6km/h0uvi
06.05.2021 17:3518.1°C18.1°C18.1°C48.5%1008.0hPa0.0mm2.8km/hNE4.7km/h0uvi
06.05.2021 17:4018.1°C18.1°C18.0°C48.6%1008.0hPa0.0mm2.0km/hNE5.8km/h0uvi
06.05.2021 17:4518.0°C18.0°C18.0°C48.0%1008.0hPa0.0mm2.9km/hNE5.8km/h0uvi
06.05.2021 17:5018.0°C18.1°C18.0°C48.2%1008.0hPa0.0mm3.0km/hNE6.1km/h0uvi
06.05.2021 17:5518.0°C18.0°C18.0°C48.0%1008.0hPa0.0mm2.2km/hNE4.0km/h0uvi
06.05.2021 18:0018.0°C18.0°C18.0°C48.5%1008.0hPa0.0mm4.3km/hNE6.8km/h0uvi
06.05.2021 18:0518.0°C18.0°C18.0°C48.2%1008.0hPa0.0mm4.5km/hNE10.4km/h0uvi
06.05.2021 18:1018.1°C18.1°C18.0°C47.0%1008.0hPa0.0mm3.7km/hNE5.8km/h0uvi
06.05.2021 18:1518.1°C18.1°C18.1°C47.0%1008.0hPa0.0mm3.3km/hNE5.0km/h0uvi
06.05.2021 18:2017.9°C18.0°C17.9°C47.0%1008.0hPa0.0mm4.2km/hNE5.8km/h0uvi
06.05.2021 18:2517.9°C17.9°C17.9°C47.3%1008.0hPa0.0mm3.8km/hNE7.6km/h0uvi
06.05.2021 18:3017.8°C17.8°C17.7°C47.0%1008.0hPa0.0mm4.5km/hNE6.8km/h0uvi
06.05.2021 18:3517.6°C17.7°C17.6°C47.0%1008.0hPa0.0mm4.7km/hNE9.0km/h0uvi
06.05.2021 18:4017.5°C17.5°C17.4°C47.8%1008.0hPa0.0mm5.4km/hNE9.4km/h0uvi
06.05.2021 18:4517.3°C17.3°C17.3°C48.0%1008.0hPa0.0mm5.8km/hNE9.4km/h0uvi
06.05.2021 18:5017.1°C17.2°C17.0°C48.5%1008.0hPa0.0mm5.1km/hNE9.7km/h0uvi
06.05.2021 18:5516.9°C17.0°C16.9°C50.0%1008.0hPa0.0mm4.9km/hNE6.8km/h0uvi
06.05.2021 19:0016.7°C16.8°C16.7°C51.0%1008.0hPa0.0mm6.2km/hNE9.0km/h0uvi
06.05.2021 19:0516.6°C16.6°C16.6°C51.0%1008.0hPa0.0mm5.1km/hNE7.6km/h0uvi
06.05.2021 19:1016.5°C16.6°C16.5°C52.0%1008.0hPa0.0mm5.0km/hNE8.6km/h0uvi
06.05.2021 19:1516.4°C16.4°C16.4°C51.0%1008.0hPa0.0mm4.7km/hNE6.1km/h0uvi
06.05.2021 19:2016.4°C16.4°C16.3°C51.8%1008.0hPa0.0mm4.9km/hNE9.4km/h0uvi
06.05.2021 19:2516.2°C16.3°C16.2°C52.2%1008.0hPa0.0mm4.6km/hNE6.8km/h0uvi
06.05.2021 19:3016.1°C16.1°C16.1°C53.0%1008.0hPa0.0mm6.4km/hNE12.6km/h0uvi
06.05.2021 19:3516.0°C16.0°C15.9°C53.6%1008.0hPa0.0mm7.3km/hNE10.4km/h0uvi
06.05.2021 19:4015.8°C15.9°C15.8°C54.0%1008.0hPa0.0mm8.1km/hNE10.4km/h0uvi
06.05.2021 19:4515.8°C15.8°C15.7°C54.0%1008.0hPa0.0mm7.1km/hNE10.4km/h0uvi
06.05.2021 19:5015.6°C15.7°C15.6°C54.0%1008.0hPa0.0mm7.8km/hNE12.6km/h0uvi
06.05.2021 19:5515.5°C15.6°C15.5°C54.0%1008.0hPa0.0mm5.5km/hNE7.9km/h0uvi
06.05.2021 20:0015.4°C15.5°C15.4°C54.0%1008.0hPa0.0mm5.2km/hNE7.9km/h0uvi
06.05.2021 20:0515.4°C15.4°C15.3°C54.2%1008.0hPa0.0mm5.0km/hENE9.4km/h0uvi
06.05.2021 20:1015.3°C15.3°C15.2°C55.0%1008.0hPa0.0mm5.5km/hNE9.4km/h0uvi
06.05.2021 20:1515.1°C15.2°C15.1°C55.2%1008.0hPa0.0mm5.0km/hNE9.4km/h0uvi
06.05.2021 20:2015.0°C15.0°C14.9°C56.2%1008.0hPa0.0mm4.8km/hNE9.7km/h0uvi
06.05.2021 20:2514.8°C14.9°C14.7°C57.5%1008.0hPa0.0mm5.4km/hNE8.6km/h0uvi
06.05.2021 20:3014.7°C14.7°C14.6°C58.3%1008.0hPa0.0mm5.3km/hNE11.5km/h0uvi
06.05.2021 20:3514.6°C14.6°C14.5°C59.0%1008.0hPa0.0mm6.6km/hNE10.1km/h0uvi
06.05.2021 20:4014.4°C14.4°C14.4°C59.0%1008.0hPa0.0mm2.7km/hNE4.7km/h0uvi
06.05.2021 20:4514.3°C14.4°C14.3°C59.8%1008.0hPa0.0mm4.8km/hNE6.8km/h0uvi
06.05.2021 20:5014.2°C14.3°C14.1°C61.0%1008.0hPa0.0mm5.9km/hNE9.4km/h0uvi
06.05.2021 20:5514.1°C14.1°C14.1°C61.2%1008.0hPa0.0mm5.0km/hNE6.5km/h0uvi
06.05.2021 21:0014.1°C14.1°C14.0°C61.4%1008.0hPa0.0mm2.0km/hNE4.7km/h0uvi
06.05.2021 21:0514.0°C14.0°C14.0°C61.6%1008.0hPa0.0mm2.2km/hNE5.4km/h0uvi
06.05.2021 21:1014.0°C14.0°C14.0°C61.5%1008.0hPa0.0mm0.9km/hNE3.2km/h0uvi
06.05.2021 21:1513.9°C13.9°C13.9°C62.0%1008.0hPa0.0mm3.2km/hNE6.5km/h0uvi
06.05.2021 21:2013.9°C13.9°C13.9°C63.0%1008.0hPa0.0mm6.3km/hNE9.0km/h0uvi
06.05.2021 21:2513.9°C13.9°C13.9°C64.0%1008.0hPa0.0mm5.1km/hNE6.8km/h0uvi
06.05.2021 21:3013.8°C13.8°C13.8°C63.2%1008.0hPa0.0mm3.6km/hNE5.8km/h0uvi
06.05.2021 21:3513.7°C13.7°C13.7°C64.0%1008.0hPa0.0mm3.4km/hNE5.4km/h0uvi
06.05.2021 21:4013.6°C13.6°C13.6°C64.0%1008.0hPa0.0mm2.5km/hNE6.5km/h0uvi
06.05.2021 21:4513.6°C13.6°C13.6°C64.0%1008.0hPa0.0mm3.5km/hNE6.1km/h0uvi
06.05.2021 21:5013.6°C13.6°C13.5°C64.0%1008.5hPa0.0mm4.0km/hNE5.8km/h0uvi
06.05.2021 21:5513.5°C13.5°C13.5°C64.0%1009.0hPa0.0mm2.2km/hNW6.1km/h0uvi
06.05.2021 22:0013.5°C13.5°C13.5°C64.0%1009.0hPa0.0mm0.7km/hNE3.2km/h0uvi
06.05.2021 22:0513.4°C13.4°C13.4°C64.0%1009.0hPa0.0mm0.3km/hNE2.2km/h0uvi
06.05.2021 22:1013.4°C13.4°C13.4°C64.8%1009.0hPa0.0mm1.9km/hNE4.0km/h0uvi
06.05.2021 22:1513.3°C13.4°C13.3°C65.3%1009.0hPa0.0mm2.5km/hSSW5.4km/h0uvi
06.05.2021 22:2013.4°C13.4°C13.4°C65.0%1009.0hPa0.0mm2.4km/hNE6.1km/h0uvi
06.05.2021 22:2513.3°C13.4°C13.3°C65.0%1009.0hPa0.0mm1.2km/hENE3.6km/h0uvi
06.05.2021 22:3013.3°C13.3°C13.3°C65.0%1009.0hPa0.0mm1.1km/hNE4.7km/h0uvi
06.05.2021 22:3513.3°C13.3°C13.3°C65.0%1008.7hPa0.0mm1.4km/hNE2.5km/h0uvi
06.05.2021 22:4013.2°C13.3°C13.2°C65.0%1008.0hPa0.0mm2.2km/hNE6.5km/h0uvi
06.05.2021 22:4513.2°C13.2°C13.1°C65.8%1008.0hPa0.0mm2.3km/hNE4.3km/h0uvi
06.05.2021 22:5013.1°C13.1°C13.1°C65.5%1008.4hPa0.0mm1.5km/hSSE4.7km/h0uvi
06.05.2021 22:5513.1°C13.1°C13.1°C65.2%1009.0hPa0.0mm0.1km/hSSE2.5km/h0uvi
06.05.2021 23:0013.1°C13.1°C13.1°C66.0%1009.0hPa0.0mm1.9km/hNE4.0km/h0uvi
06.05.2021 23:0513.0°C13.0°C13.0°C65.8%1009.0hPa0.0mm1.6km/hNE6.5km/h0uvi
06.05.2021 23:1013.0°C13.0°C13.0°C67.0%1009.0hPa0.0mm5.0km/hNE7.9km/h0uvi
06.05.2021 23:1513.0°C13.0°C13.0°C67.0%1009.0hPa0.0mm2.3km/hNE4.0km/h0uvi
06.05.2021 23:2013.0°C13.0°C12.9°C66.7%1009.0hPa0.0mm2.3km/hNE5.4km/h0uvi
06.05.2021 23:2512.9°C12.9°C12.9°C66.3%1009.0hPa0.0mm1.3km/hNE4.0km/h0uvi
06.05.2021 23:3012.9°C12.9°C12.9°C66.8%1009.0hPa0.0mm1.4km/hENE4.7km/h0uvi
06.05.2021 23:3512.9°C12.9°C12.8°C66.2%1008.4hPa0.0mm0.0km/hNE2.2km/h0uvi
06.05.2021 23:4012.8°C12.8°C12.8°C66.0%1008.0hPa0.0mm0.0km/hNE1.8km/h0uvi
06.05.2021 23:4512.8°C12.8°C12.8°C66.0%1008.0hPa0.0mm0.0km/hESE1.8km/h0uvi
06.05.2021 23:5012.8°C12.8°C12.7°C67.0%1008.4hPa0.0mm1.5km/hNE3.6km/h0uvi
06.05.2021 23:5512.7°C12.7°C12.7°C67.0%1009.0hPa0.0mm0.2km/hSSE1.4km/h0uvi
07.05.2021 00:0012.7°C12.7°C12.7°C67.2%1009.0hPa0.0mm0.8km/hNE4.0km/h0uvi
07.05.2021 00:0512.6°C12.7°C12.6°C68.0%1008.7hPa0.0mm2.3km/hNE4.3km/h0uvi
07.05.2021 00:1012.6°C12.6°C12.6°C68.0%1008.0hPa0.0mm0.6km/hNE2.2km/h0uvi
07.05.2021 00:1512.6°C12.6°C12.5°C68.5%1008.0hPa0.0mm1.1km/hNE4.3km/h0uvi
07.05.2021 00:2012.5°C12.5°C12.5°C68.4%1008.0hPa0.0mm1.6km/hNE5.0km/h0uvi
07.05.2021 00:2512.5°C12.5°C12.5°C68.2%1008.0hPa0.0mm0.0km/hENE2.2km/h0uvi
07.05.2021 00:3012.4°C12.5°C12.4°C68.0%1008.0hPa0.0mm0.0km/hNE0.0km/h0uvi
07.05.2021 00:3512.4°C12.4°C12.4°C68.0%1008.0hPa0.0mm0.0km/hESE0.0km/h0uvi
07.05.2021 00:4012.4°C12.4°C12.4°C68.2%1008.0hPa0.0mm0.5km/hNE3.6km/h0uvi
07.05.2021 00:4512.4°C12.4°C12.4°C69.0%1008.0hPa0.0mm2.7km/hNE4.7km/h0uvi
07.05.2021 00:5012.4°C12.4°C12.4°C69.0%1007.3hPa0.0mm0.0km/hESE0.0km/h0uvi
07.05.2021 00:5512.3°C12.4°C12.3°C69.3%1007.0hPa0.0mm1.2km/hSSE4.3km/h0uvi
07.05.2021 01:0012.3°C12.3°C12.3°C70.2%1007.0hPa0.0mm2.4km/hSE3.6km/h0uvi
07.05.2021 01:0512.2°C12.2°C12.2°C70.5%1007.0hPa0.0mm1.0km/hNE2.2km/h0uvi
07.05.2021 01:1012.2°C12.2°C12.2°C70.0%1007.0hPa0.0mm0.0km/hSSE0.0km/h0uvi
07.05.2021 01:1512.2°C12.2°C12.2°C70.0%1007.0hPa0.0mm0.5km/hSSE3.2km/h0uvi
07.05.2021 01:2012.2°C12.2°C12.2°C70.2%1007.4hPa0.0mm0.5km/hESE2.2km/h0uvi
07.05.2021 01:2512.1°C12.2°C12.1°C70.0%1008.0hPa0.0mm0.0km/hENE1.4km/h0uvi
07.05.2021 01:3012.1°C12.1°C12.1°C70.6%1008.0hPa0.0mm0.0km/hSE0.0km/h0uvi
07.05.2021 01:3512.1°C12.1°C12.1°C71.0%1008.0hPa0.0mm0.0km/hSE0.0km/h0uvi
07.05.2021 01:4012.1°C12.1°C12.1°C71.8%1008.0hPa0.0mm1.2km/hSSE3.2km/h0uvi
07.05.2021 01:4512.0°C12.0°C12.0°C72.0%1008.0hPa0.0mm1.3km/hSSE3.2km/h0uvi
07.05.2021 01:5012.0°C12.0°C12.0°C72.0%1008.0hPa0.0mm0.0km/hSSE0.0km/h0uvi
07.05.2021 01:5512.0°C12.0°C12.0°C72.2%1008.0hPa0.0mm2.3km/hSSE5.0km/h0uvi
07.05.2021 02:0012.0°C12.0°C12.0°C73.0%1008.0hPa0.0mm2.6km/hSSE5.4km/h0uvi
07.05.2021 02:0511.9°C12.0°C11.9°C72.8%1008.0hPa0.0mm0.3km/hSSE1.4km/h0uvi
07.05.2021 02:1011.9°C11.9°C11.9°C72.0%1008.0hPa0.0mm0.0km/hENE1.4km/h0uvi
07.05.2021 02:1511.9°C11.9°C11.9°C72.0%1008.0hPa0.0mm0.0km/hWNW1.8km/h0uvi
07.05.2021 02:2011.9°C11.9°C11.9°C72.0%1008.0hPa0.0mm0.4km/hWNW2.5km/h0uvi
07.05.2021 02:2511.9°C11.9°C11.9°C72.5%1008.0hPa0.0mm0.0km/hSE1.4km/h0uvi
07.05.2021 02:3011.8°C11.9°C11.8°C72.8%1008.0hPa0.0mm0.3km/hSSE2.2km/h0uvi
07.05.2021 02:3511.8°C11.8°C11.8°C73.0%1008.0hPa0.0mm0.4km/hESE2.2km/h0uvi
07.05.2021 02:4011.8°C11.9°C11.8°C73.0%1008.0hPa0.0mm0.0km/hESE2.2km/h0uvi
07.05.2021 02:4511.8°C11.8°C11.8°C73.0%1008.0hPa0.0mm0.0km/hNE1.8km/h0uvi
07.05.2021 02:5011.8°C11.9°C11.8°C73.5%1007.5hPa0.0mm0.8km/hSE3.6km/h0uvi
07.05.2021 02:5511.8°C11.9°C11.8°C73.4%1007.0hPa0.0mm2.1km/hSE3.6km/h0uvi
07.05.2021 03:0011.9°C11.9°C11.9°C73.2%1007.0hPa0.0mm1.9km/hSE2.5km/h0uvi
07.05.2021 03:0511.9°C11.9°C11.9°C73.0%1007.0hPa0.0mm0.6km/hSSE2.5km/h0uvi
07.05.2021 03:1011.8°C11.8°C11.8°C74.0%1007.0hPa0.0mm1.6km/hSSE3.2km/h0uvi
07.05.2021 03:1511.8°C11.8°C11.8°C74.0%1007.0hPa0.0mm0.2km/hSSE0.0km/h0uvi
07.05.2021 03:2011.8°C11.8°C11.8°C74.0%1007.0hPa0.0mm2.2km/hSSE4.0km/h0uvi
07.05.2021 03:2511.8°C11.8°C11.8°C74.0%1007.0hPa0.0mm2.3km/hSE3.2km/h0uvi
07.05.2021 03:3011.8°C11.8°C11.8°C74.0%1007.0hPa0.0mm0.9km/hSE2.5km/h0uvi
07.05.2021 03:3511.8°C11.8°C11.7°C74.0%1007.0hPa0.0mm0.6km/hNE4.0km/h0uvi
07.05.2021 03:4011.7°C11.7°C11.7°C74.0%1007.0hPa0.0mm0.3km/hENE2.5km/h0uvi
07.05.2021 03:4511.6°C11.7°C11.6°C74.0%1007.0hPa0.0mm0.3km/hNE2.2km/h0uvi
07.05.2021 03:5011.5°C11.5°C11.5°C74.0%1007.0hPa0.0mm0.1km/hNE1.8km/h0uvi
07.05.2021 03:5511.4°C11.5°C11.4°C74.0%1007.0hPa0.0mm0.2km/hSSE2.5km/h0uvi
07.05.2021 04:0011.4°C11.4°C11.3°C74.7%1007.0hPa0.0mm0.3km/hSE2.2km/h0uvi
07.05.2021 04:0511.3°C11.3°C11.3°C75.0%1007.0hPa0.0mm0.2km/hSE2.2km/h0uvi
07.05.2021 04:1011.2°C11.3°C11.2°C75.6%1007.0hPa0.0mm0.7km/hNE2.2km/h0uvi
07.05.2021 04:1511.2°C11.2°C11.2°C76.0%1007.0hPa0.0mm0.0km/hNE0.0km/h0uvi
07.05.2021 04:2011.2°C11.2°C11.2°C76.0%1007.0hPa0.0mm1.4km/hSSE4.3km/h0uvi
07.05.2021 04:2511.1°C11.1°C11.1°C77.0%1007.0hPa0.0mm3.3km/hSSE4.7km/h0uvi
07.05.2021 04:3011.1°C11.1°C11.0°C77.0%1007.0hPa0.0mm2.0km/hSSE4.3km/h0uvi
07.05.2021 04:3511.0°C11.0°C11.0°C77.0%1007.0hPa0.0mm0.6km/hSSE4.0km/h0uvi
07.05.2021 04:4011.0°C11.0°C10.9°C77.0%1007.0hPa0.0mm1.2km/hSSE2.2km/h0uvi
07.05.2021 04:4510.9°C10.9°C10.9°C77.0%1007.0hPa0.0mm0.5km/hNE3.2km/h0uvi
07.05.2021 04:5010.8°C10.8°C10.8°C77.0%1007.0hPa0.0mm0.7km/hNE2.2km/h0uvi
07.05.2021 04:5510.7°C10.8°C10.6°C77.0%1007.0hPa0.0mm0.1km/hSSE1.8km/h0uvi
07.05.2021 05:0010.5°C10.6°C10.5°C77.2%1007.0hPa0.0mm1.9km/hSSE3.2km/h0uvi
07.05.2021 05:0510.4°C10.5°C10.4°C78.0%1007.0hPa0.0mm0.6km/hSSE2.2km/h0uvi
07.05.2021 05:1010.2°C10.3°C10.2°C78.0%1007.0hPa0.0mm2.2km/hSSE4.0km/h0uvi
07.05.2021 05:1510.2°C10.2°C10.1°C80.0%1007.0hPa0.0mm2.1km/hSSE3.2km/h0uvi
07.05.2021 05:2010.0°C10.0°C10.0°C80.0%1007.0hPa0.0mm1.2km/hSSE2.5km/h0uvi
07.05.2021 05:259.9°C9.9°C9.8°C80.0%1007.0hPa0.0mm1.6km/hSSE2.2km/h0uvi
07.05.2021 05:309.8°C9.8°C9.7°C80.0%1007.0hPa0.0mm2.5km/hSSE4.3km/h0uvi
07.05.2021 05:359.6°C9.6°C9.5°C80.0%1007.0hPa0.0mm1.5km/hSSW2.5km/h0uvi
07.05.2021 05:409.5°C9.5°C9.5°C81.0%1007.0hPa0.0mm1.4km/hSSE4.0km/h0uvi
07.05.2021 05:459.4°C9.5°C9.4°C81.0%1007.0hPa0.0mm3.4km/hSSE4.3km/h0uvi
07.05.2021 05:509.3°C9.3°C9.3°C81.3%1007.0hPa0.0mm1.4km/hSSE4.0km/h0uvi
07.05.2021 05:559.4°C9.4°C9.4°C82.5%1007.0hPa0.0mm2.4km/hSSE4.7km/h0uvi
07.05.2021 06:009.3°C9.3°C9.3°C83.0%1007.0hPa0.0mm1.2km/hSSE2.5km/h0uvi
07.05.2021 06:059.3°C9.3°C9.3°C83.0%1007.0hPa0.0mm0.7km/hSE4.0km/h0uvi
07.05.2021 06:109.2°C9.2°C9.2°C82.3%1007.0hPa0.0mm1.8km/hSSE3.2km/h0uvi
07.05.2021 06:159.1°C9.2°C9.1°C82.0%1007.0hPa0.0mm1.1km/hS4.3km/h0uvi
07.05.2021 06:209.2°C9.2°C9.2°C83.0%1007.0hPa0.0mm1.2km/hSSE4.0km/h0uvi
07.05.2021 06:259.2°C9.2°C9.2°C83.0%1007.0hPa0.0mm3.1km/hSSE5.0km/h0uvi
07.05.2021 06:309.2°C9.2°C9.2°C83.0%1007.0hPa0.0mm1.5km/hSSW3.6km/h0uvi
07.05.2021 06:359.2°C9.3°C9.2°C83.0%1007.0hPa0.0mm0.4km/hSSW0.0km/h0uvi
07.05.2021 06:409.4°C9.4°C9.4°C83.2%1007.0hPa0.0mm2.0km/hS4.0km/h0uvi
07.05.2021 06:459.5°C9.5°C9.5°C84.0%1007.0hPa0.0mm3.5km/hSSE4.7km/h0uvi
07.05.2021 06:509.6°C9.6°C9.5°C83.7%1007.0hPa0.0mm0.3km/hSSE2.2km/h0uvi
07.05.2021 06:559.7°C9.7°C9.6°C83.0%1007.0hPa0.0mm0.0km/hESE2.5km/h0uvi
07.05.2021 07:009.8°C9.8°C9.8°C83.0%1007.0hPa0.0mm1.5km/hSE3.6km/h0uvi
07.05.2021 07:0510.0°C10.0°C9.9°C82.3%1007.0hPa0.0mm1.2km/hSE2.5km/h0uvi
07.05.2021 07:1010.1°C10.1°C10.0°C82.0%1007.0hPa0.0mm1.0km/hSSW3.6km/h0uvi
07.05.2021 07:1510.2°C10.2°C10.2°C82.0%1007.0hPa0.0mm0.3km/hNE2.2km/h0uvi
07.05.2021 07:2010.3°C10.4°C10.2°C82.0%1007.0hPa0.0mm0.4km/hNE4.3km/h0uvi
07.05.2021 07:2510.4°C10.5°C10.4°C82.0%1007.0hPa0.0mm0.0km/hNW2.2km/h0uvi
07.05.2021 07:3010.5°C10.6°C10.5°C82.0%1007.0hPa0.0mm0.8km/hESE2.2km/h0uvi
07.05.2021 07:3510.7°C10.8°C10.7°C82.0%1007.0hPa0.0mm1.2km/hSSW2.5km/h0uvi
07.05.2021 07:4010.9°C10.9°C10.9°C82.0%1007.0hPa0.0mm2.2km/hSE4.7km/h0uvi
07.05.2021 07:4511.0°C11.1°C11.0°C82.0%1007.0hPa0.0mm3.0km/hSE5.0km/h0uvi
07.05.2021 07:5011.1°C11.1°C11.1°C81.5%1007.4hPa0.0mm1.1km/hNE4.0km/h